KLM26E LFPG-EHAM
Flight info
| Callsign | KLM26E |
|---|---|
| Flight time | 0h 41m |
| Altitude | 30000 |
| Route | NURMO6G/09R NURMO DCT CMB DCT VEKIN DCT ADUTO N873 FERDI Y18 DENUT |
| Aircraft | B737/M-SDE2E3FGIJ1RWY/LB1 |
Departure
| Time | 2026-05-08 19:22 |
|---|---|
| Airport | Charles de Gaulle International Airport (LFPG) |
Arrival
| Time | 2026-05-08 20:04 |
|---|---|
| Airport | Amsterdam Airport Schiphol (EHAM) |
| Time | Latitude | Longitude | Altitude | Speed | Heading |
|---|---|---|---|---|---|
| 2026-05-08 18:20 | 49.00618 | 2.57325 | 353 ft | 0 kts | 86° |
| 2026-05-08 19:06 | 49.00617 | 2.57302 | 353 ft | 4 kts | 82° |
| 2026-05-08 19:06 | 49.00610 | 2.57263 | 358 ft | 4 kts | 57° |
| 2026-05-08 19:07 | 49.00594 | 2.57242 | 360 ft | 3 kts | 356° |
| 2026-05-08 19:07 | 49.00591 | 2.57243 | 353 ft | 1 kts | 354° |
| 2026-05-08 19:09 | 49.00592 | 2.57242 | 353 ft | 1 kts | 354° |
| 2026-05-08 19:09 | 49.00619 | 2.57238 | 357 ft | 9 kts | 354° |
| 2026-05-08 19:10 | 49.00705 | 2.57228 | 353 ft | 15 kts | 356° |
| 2026-05-08 19:10 | 49.00786 | 2.57215 | 358 ft | 4 kts | 351° |
| 2026-05-08 19:10 | 49.00789 | 2.57214 | 353 ft | 0 kts | 350° |
| 2026-05-08 19:11 | 49.00791 | 2.57213 | 360 ft | 2 kts | 350° |
| 2026-05-08 19:11 | 49.00823 | 2.57205 | 353 ft | 7 kts | 349° |
| 2026-05-08 19:11 | 49.00855 | 2.57126 | 356 ft | 12 kts | 266° |
| 2026-05-08 19:12 | 49.00847 | 2.56972 | 361 ft | 17 kts | 265° |
| 2026-05-08 19:12 | 49.00836 | 2.56767 | 359 ft | 21 kts | 265° |
| 2026-05-08 19:12 | 49.00823 | 2.56536 | 353 ft | 23 kts | 265° |
| 2026-05-08 19:12 | 49.00802 | 2.56296 | 353 ft | 23 kts | 261° |
| 2026-05-08 19:13 | 49.00780 | 2.56062 | 361 ft | 22 kts | 262° |
| 2026-05-08 19:13 | 49.00759 | 2.55835 | 357 ft | 21 kts | 262° |
| 2026-05-08 19:13 | 49.00740 | 2.55614 | 355 ft | 21 kts | 263° |
| 2026-05-08 19:13 | 49.00726 | 2.55405 | 359 ft | 16 kts | 272° |
| 2026-05-08 19:14 | 49.00800 | 2.55319 | 359 ft | 14 kts | 346° |
| 2026-05-08 19:14 | 49.00893 | 2.55278 | 357 ft | 14 kts | 343° |
| 2026-05-08 19:14 | 49.00982 | 2.55238 | 361 ft | 13 kts | 344° |
| 2026-05-08 19:14 | 49.01068 | 2.55201 | 360 ft | 13 kts | 345° |
| 2026-05-08 19:15 | 49.01157 | 2.55164 | 360 ft | 13 kts | 345° |
| 2026-05-08 19:15 | 49.01242 | 2.55176 | 358 ft | 13 kts | 25° |
| 2026-05-08 19:15 | 49.01328 | 2.55220 | 353 ft | 14 kts | 2° |
| 2026-05-08 19:15 | 49.01435 | 2.55183 | 357 ft | 17 kts | 348° |
| 2026-05-08 19:16 | 49.01566 | 2.55162 | 356 ft | 20 kts | 355° |
| 2026-05-08 19:16 | 49.01716 | 2.55143 | 353 ft | 23 kts | 355° |
| 2026-05-08 19:16 | 49.01841 | 2.55124 | 357 ft | 8 kts | 350° |
| 2026-05-08 19:16 | 49.01860 | 2.55062 | 353 ft | 7 kts | 262° |
| 2026-05-08 19:17 | 49.01854 | 2.54972 | 356 ft | 11 kts | 264° |
| 2026-05-08 19:17 | 49.01846 | 2.54824 | 359 ft | 17 kts | 265° |
| 2026-05-08 19:17 | 49.01835 | 2.54612 | 353 ft | 23 kts | 265° |
| 2026-05-08 19:17 | 49.01821 | 2.54353 | 357 ft | 26 kts | 266° |
| 2026-05-08 19:18 | 49.01807 | 2.54077 | 353 ft | 26 kts | 265° |
| 2026-05-08 19:18 | 49.01793 | 2.53816 | 362 ft | 24 kts | 265° |
| 2026-05-08 19:18 | 49.01780 | 2.53573 | 353 ft | 23 kts | 265° |
| 2026-05-08 19:18 | 49.01765 | 2.53338 | 356 ft | 22 kts | 265° |
| 2026-05-08 19:19 | 49.01757 | 2.53115 | 356 ft | 18 kts | 266° |
| 2026-05-08 19:19 | 49.01744 | 2.52927 | 362 ft | 18 kts | 265° |
| 2026-05-08 19:19 | 49.01737 | 2.52785 | 361 ft | 6 kts | 265° |
| 2026-05-08 19:19 | 49.01737 | 2.52766 | 359 ft | 0 kts | 274° |
| 2026-05-08 19:20 | 49.01739 | 2.52764 | 355 ft | 0 kts | 301° |
| 2026-05-08 19:20 | 49.01741 | 2.52764 | 355 ft | 1 kts | 323° |
| 2026-05-08 19:20 | 49.01798 | 2.52754 | 358 ft | 13 kts | 355° |
| 2026-05-08 19:20 | 49.01903 | 2.52741 | 353 ft | 17 kts | 356° |
| 2026-05-08 19:21 | 49.02003 | 2.52730 | 353 ft | 10 kts | 355° |
| 2026-05-08 19:21 | 49.02057 | 2.52723 | 355 ft | 7 kts | 355° |
| 2026-05-08 19:21 | 49.02108 | 2.52716 | 358 ft | 8 kts | 356° |
| 2026-05-08 19:21 | 49.02143 | 2.52770 | 355 ft | 10 kts | 85° |
| 2026-05-08 19:22 | 49.02164 | 2.53156 | 357 ft | 74 kts | 85° |
| 2026-05-08 19:22 | 49.02226 | 2.54303 | 360 ft | 139 kts | 85° |
| 2026-05-08 19:22 | 49.02307 | 2.55880 | 788 ft | 154 kts | 86° |
| 2026-05-08 19:22 | 49.02380 | 2.57576 | 1417 ft | 164 kts | 85° |
| 2026-05-08 19:23 | 49.02469 | 2.59328 | 2192 ft | 168 kts | 84° |
| 2026-05-08 19:23 | 49.02573 | 2.61121 | 3004 ft | 170 kts | 84° |
| 2026-05-08 19:23 | 49.02680 | 2.62885 | 3903 ft | 168 kts | 84° |
| 2026-05-08 19:23 | 49.02787 | 2.64786 | 4320 ft | 197 kts | 84° |
| 2026-05-08 19:24 | 49.02908 | 2.67012 | 4570 ft | 225 kts | 85° |
| 2026-05-08 19:24 | 49.03039 | 2.69551 | 4819 ft | 255 kts | 85° |
| 2026-05-08 19:24 | 49.03207 | 2.72321 | 5463 ft | 268 kts | 79° |
| 2026-05-08 19:24 | 49.04018 | 2.74866 | 6430 ft | 272 kts | 48° |
| 2026-05-08 19:25 | 49.05576 | 2.76499 | 7462 ft | 277 kts | 20° |
| 2026-05-08 19:25 | 49.07485 | 2.77015 | 8457 ft | 283 kts | 2° |
| 2026-05-08 19:25 | 49.09504 | 2.77057 | 8887 ft | 296 kts | 359° |
| 2026-05-08 19:25 | 49.11544 | 2.76989 | 9089 ft | 292 kts | 358° |
| 2026-05-08 19:26 | 49.13565 | 2.76901 | 9285 ft | 290 kts | 358° |
| 2026-05-08 19:26 | 49.15586 | 2.76821 | 9491 ft | 291 kts | 358° |
| 2026-05-08 19:26 | 49.17618 | 2.76750 | 9694 ft | 293 kts | 359° |
| 2026-05-08 19:26 | 49.19659 | 2.76690 | 9898 ft | 294 kts | 359° |
| 2026-05-08 19:27 | 49.21703 | 2.76637 | 10042 ft | 295 kts | 359° |
| 2026-05-08 19:27 | 49.23756 | 2.76589 | 10046 ft | 295 kts | 359° |
| 2026-05-08 19:27 | 49.25802 | 2.76545 | 10049 ft | 293 kts | 359° |
| 2026-05-08 19:27 | 49.27845 | 2.76504 | 10054 ft | 293 kts | 359° |
| 2026-05-08 19:28 | 49.29894 | 2.76466 | 10091 ft | 301 kts | 359° |
| 2026-05-08 19:28 | 49.32100 | 2.76454 | 10365 ft | 332 kts | 360° |
| 2026-05-08 19:28 | 49.34462 | 2.76417 | 11095 ft | 344 kts | 359° |
| 2026-05-08 19:28 | 49.36838 | 2.76363 | 12036 ft | 348 kts | 359° |
| 2026-05-08 19:29 | 49.39272 | 2.76307 | 13046 ft | 351 kts | 359° |
| 2026-05-08 19:29 | 49.41732 | 2.76255 | 13999 ft | 356 kts | 359° |
| 2026-05-08 19:29 | 49.44229 | 2.76205 | 14937 ft | 361 kts | 359° |
| 2026-05-08 19:29 | 49.46759 | 2.76158 | 15889 ft | 365 kts | 359° |
| 2026-05-08 19:30 | 49.49308 | 2.76496 | 16786 ft | 372 kts | 11° |
| 2026-05-08 19:30 | 49.51805 | 2.77613 | 17681 ft | 377 kts | 18° |
| 2026-05-08 19:30 | 49.54300 | 2.78926 | 18560 ft | 381 kts | 19° |
| 2026-05-08 19:30 | 49.56817 | 2.80289 | 19401 ft | 386 kts | 19° |
| 2026-05-08 19:31 | 49.59365 | 2.81667 | 20223 ft | 390 kts | 19° |
| 2026-05-08 19:31 | 49.61939 | 2.83048 | 21033 ft | 394 kts | 18° |
| 2026-05-08 19:31 | 49.64544 | 2.84430 | 21800 ft | 398 kts | 18° |
| 2026-05-08 19:31 | 49.67180 | 2.85818 | 22544 ft | 402 kts | 18° |
| 2026-05-08 19:32 | 49.69841 | 2.87213 | 23261 ft | 406 kts | 18° |
| 2026-05-08 19:32 | 49.72530 | 2.88621 | 23949 ft | 410 kts | 18° |
| 2026-05-08 19:32 | 49.75243 | 2.90041 | 24616 ft | 413 kts | 18° |
| 2026-05-08 19:32 | 49.77979 | 2.91473 | 25265 ft | 417 kts | 18° |
| 2026-05-08 19:33 | 49.80732 | 2.92916 | 25894 ft | 420 kts | 18° |
| 2026-05-08 19:33 | 49.83511 | 2.94374 | 26501 ft | 423 kts | 18° |
| 2026-05-08 19:33 | 49.86307 | 2.95844 | 27081 ft | 426 kts | 18° |
| 2026-05-08 19:33 | 49.89125 | 2.97327 | 27631 ft | 429 kts | 17° |
| 2026-05-08 19:34 | 49.91958 | 2.98820 | 28217 ft | 430 kts | 17° |
| 2026-05-08 19:34 | 49.94783 | 3.00311 | 28912 ft | 429 kts | 17° |
| 2026-05-08 19:34 | 49.97626 | 3.01814 | 29097 ft | 432 kts | 17° |
| 2026-05-08 19:34 | 50.00463 | 3.03314 | 29337 ft | 430 kts | 17° |
| 2026-05-08 19:35 | 50.03274 | 3.04804 | 29549 ft | 424 kts | 17° |
| 2026-05-08 19:35 | 50.06054 | 3.06279 | 29769 ft | 421 kts | 17° |
| 2026-05-08 19:35 | 50.08822 | 3.07749 | 29995 ft | 420 kts | 17° |
| 2026-05-08 19:36 | 50.14390 | 3.10711 | 30067 ft | 422 kts | 17° |
| 2026-05-08 19:36 | 50.19941 | 3.13672 | 30079 ft | 422 kts | 18° |
| 2026-05-08 19:37 | 50.25445 | 3.16890 | 30096 ft | 423 kts | 22° |
| 2026-05-08 19:37 | 50.30809 | 3.20714 | 30099 ft | 424 kts | 23° |
| 2026-05-08 19:38 | 50.36178 | 3.24543 | 30093 ft | 424 kts | 23° |
| 2026-05-08 19:38 | 50.41559 | 3.28334 | 30105 ft | 424 kts | 24° |
| 2026-05-08 19:39 | 50.46832 | 3.32494 | 30104 ft | 424 kts | 26° |
| 2026-05-08 19:39 | 50.52063 | 3.36628 | 30100 ft | 423 kts | 24° |
| 2026-05-08 19:40 | 50.57434 | 3.40382 | 30102 ft | 422 kts | 22° |
| 2026-05-08 19:40 | 50.62835 | 3.44012 | 30101 ft | 422 kts | 22° |
| 2026-05-08 19:41 | 50.68230 | 3.47694 | 30101 ft | 422 kts | 22° |
| 2026-05-08 19:41 | 50.73616 | 3.51411 | 30104 ft | 423 kts | 22° |
| 2026-05-08 19:42 | 50.78997 | 3.55143 | 30110 ft | 423 kts | 22° |
| 2026-05-08 19:42 | 50.84389 | 3.58885 | 30099 ft | 423 kts | 22° |
| 2026-05-08 19:43 | 50.89807 | 3.62546 | 30097 ft | 423 kts | 17° |
| 2026-05-08 19:43 | 50.95560 | 3.64152 | 30111 ft | 420 kts | 2° |
| 2026-05-08 19:43 | 50.98491 | 3.64323 | 29588 ft | 425 kts | 1° |
| 2026-05-08 19:44 | 51.01425 | 3.64454 | 29028 ft | 420 kts | 1° |
| 2026-05-08 19:44 | 51.04330 | 3.64592 | 28393 ft | 414 kts | 1° |
| 2026-05-08 19:44 | 51.07196 | 3.64746 | 27764 ft | 410 kts | 1° |
| 2026-05-08 19:44 | 51.10032 | 3.64916 | 27135 ft | 406 kts | 1° |
| 2026-05-08 19:45 | 51.12839 | 3.65095 | 26506 ft | 402 kts | 1° |
| 2026-05-08 19:45 | 51.15625 | 3.65278 | 25880 ft | 399 kts | 1° |
| 2026-05-08 19:45 | 51.18392 | 3.65460 | 25250 ft | 396 kts | 2° |
| 2026-05-08 19:45 | 51.21132 | 3.65638 | 24630 ft | 393 kts | 2° |
| 2026-05-08 19:46 | 51.23856 | 3.65811 | 24034 ft | 390 kts | 1° |
| 2026-05-08 19:46 | 51.26546 | 3.65835 | 23628 ft | 385 kts | 359° |
| 2026-05-08 19:46 | 51.31888 | 3.65626 | 22796 ft | 385 kts | 358° |
| 2026-05-08 19:47 | 51.34575 | 3.65506 | 22373 ft | 387 kts | 358° |
| 2026-05-08 19:47 | 51.37266 | 3.65397 | 21946 ft | 386 kts | 358° |
| 2026-05-08 19:47 | 51.39949 | 3.65299 | 21518 ft | 384 kts | 358° |
| 2026-05-08 19:47 | 51.42614 | 3.65209 | 21095 ft | 382 kts | 358° |
| 2026-05-08 19:48 | 51.45272 | 3.65123 | 20676 ft | 381 kts | 358° |
| 2026-05-08 19:48 | 51.47912 | 3.65039 | 20256 ft | 379 kts | 358° |
| 2026-05-08 19:48 | 51.50544 | 3.64957 | 19837 ft | 378 kts | 358° |
| 2026-05-08 19:48 | 51.53162 | 3.64875 | 19421 ft | 376 kts | 358° |
| 2026-05-08 19:49 | 51.55774 | 3.64792 | 19006 ft | 375 kts | 358° |
| 2026-05-08 19:49 | 51.58375 | 3.64711 | 18593 ft | 373 kts | 358° |
| 2026-05-08 19:49 | 51.60963 | 3.64629 | 18187 ft | 371 kts | 358° |
| 2026-05-08 19:49 | 51.63531 | 3.64548 | 17783 ft | 367 kts | 359° |
| 2026-05-08 19:50 | 51.66069 | 3.64468 | 17381 ft | 363 kts | 359° |
| 2026-05-08 19:50 | 51.68576 | 3.64403 | 16963 ft | 357 kts | 1° |
| 2026-05-08 19:50 | 51.70959 | 3.65166 | 16575 ft | 355 kts | 23° |
| 2026-05-08 19:50 | 51.73025 | 3.67288 | 16216 ft | 351 kts | 42° |
| 2026-05-08 19:51 | 51.74563 | 3.70307 | 15847 ft | 348 kts | 56° |
| 2026-05-08 19:51 | 51.75873 | 3.73580 | 15461 ft | 346 kts | 58° |
| 2026-05-08 19:51 | 51.77138 | 3.76882 | 15076 ft | 345 kts | 58° |
| 2026-05-08 19:51 | 51.78392 | 3.80170 | 14696 ft | 343 kts | 58° |
| 2026-05-08 19:52 | 51.79650 | 3.83438 | 14318 ft | 342 kts | 58° |
| 2026-05-08 19:52 | 51.80986 | 3.86603 | 13907 ft | 340 kts | 49° |
| 2026-05-08 19:52 | 51.82635 | 3.89299 | 13348 ft | 336 kts | 43° |
| 2026-05-08 19:52 | 51.84351 | 3.91872 | 12691 ft | 337 kts | 43° |
| 2026-05-08 19:53 | 51.86076 | 3.94423 | 12120 ft | 334 kts | 42° |
| 2026-05-08 19:53 | 51.87789 | 3.96947 | 11577 ft | 331 kts | 42° |
| 2026-05-08 19:53 | 51.89484 | 3.99441 | 11102 ft | 326 kts | 42° |
| 2026-05-08 19:53 | 51.91117 | 4.01843 | 11016 ft | 309 kts | 42° |
| 2026-05-08 19:54 | 51.92668 | 4.04128 | 10879 ft | 295 kts | 42° |
| 2026-05-08 19:54 | 51.94173 | 4.06343 | 10527 ft | 291 kts | 42° |
| 2026-05-08 19:54 | 51.95665 | 4.08542 | 10092 ft | 290 kts | 42° |
| 2026-05-08 19:54 | 51.97155 | 4.10740 | 9652 ft | 289 kts | 42° |
| 2026-05-08 19:55 | 51.98632 | 4.12924 | 9237 ft | 287 kts | 42° |
| 2026-05-08 19:55 | 52.00049 | 4.15194 | 8819 ft | 284 kts | 47° |
| 2026-05-08 19:55 | 52.01331 | 4.17566 | 8236 ft | 279 kts | 49° |
| 2026-05-08 19:55 | 52.02589 | 4.19935 | 7640 ft | 278 kts | 49° |
| 2026-05-08 19:56 | 52.03864 | 4.22305 | 7183 ft | 276 kts | 48° |
| 2026-05-08 19:56 | 52.05114 | 4.24590 | 6813 ft | 273 kts | 48° |
| 2026-05-08 19:56 | 52.06374 | 4.26869 | 6474 ft | 269 kts | 48° |
| 2026-05-08 19:56 | 52.07619 | 4.29100 | 6157 ft | 265 kts | 47° |
| 2026-05-08 19:57 | 52.08854 | 4.31304 | 5839 ft | 261 kts | 47° |
| 2026-05-08 19:57 | 52.10075 | 4.33477 | 5533 ft | 259 kts | 47° |
| 2026-05-08 19:57 | 52.11284 | 4.35626 | 5227 ft | 257 kts | 47° |
| 2026-05-08 19:57 | 52.12485 | 4.37760 | 4928 ft | 255 kts | 47° |
| 2026-05-08 19:58 | 52.13677 | 4.39878 | 4618 ft | 252 kts | 47° |
| 2026-05-08 19:58 | 52.14852 | 4.41967 | 4326 ft | 249 kts | 47° |
| 2026-05-08 19:58 | 52.16016 | 4.44036 | 4037 ft | 246 kts | 47° |
| 2026-05-08 19:58 | 52.17168 | 4.46085 | 3753 ft | 243 kts | 47° |
| 2026-05-08 19:59 | 52.18294 | 4.48089 | 3530 ft | 237 kts | 48° |
| 2026-05-08 19:59 | 52.19388 | 4.50042 | 3343 ft | 228 kts | 48° |
| 2026-05-08 19:59 | 52.20420 | 4.51883 | 3131 ft | 215 kts | 49° |
| 2026-05-08 19:59 | 52.21305 | 4.53786 | 2803 ft | 208 kts | 57° |
| 2026-05-08 20:00 | 52.22045 | 4.55734 | 2525 ft | 196 kts | 59° |
| 2026-05-08 20:00 | 52.22740 | 4.57579 | 2262 ft | 186 kts | 58° |
| 2026-05-08 20:00 | 52.23397 | 4.59306 | 2015 ft | 172 kts | 58° |
| 2026-05-08 20:00 | 52.24002 | 4.60890 | 1791 ft | 158 kts | 58° |
| 2026-05-08 20:01 | 52.24550 | 4.62325 | 1623 ft | 141 kts | 58° |
| 2026-05-08 20:01 | 52.25048 | 4.63624 | 1428 ft | 132 kts | 58° |
| 2026-05-08 20:01 | 52.25531 | 4.64890 | 1263 ft | 131 kts | 58° |
| 2026-05-08 20:01 | 52.26016 | 4.66156 | 1088 ft | 131 kts | 58° |
| 2026-05-08 20:02 | 52.26500 | 4.67422 | 912 ft | 131 kts | 57° |
| 2026-05-08 20:02 | 52.26978 | 4.68676 | 724 ft | 130 kts | 57° |
| 2026-05-08 20:02 | 52.27460 | 4.69947 | 572 ft | 132 kts | 58° |
| 2026-05-08 20:02 | 52.27938 | 4.71210 | 381 ft | 131 kts | 57° |
| 2026-05-08 20:03 | 52.28409 | 4.72424 | 212 ft | 131 kts | 57° |
| 2026-05-08 20:03 | 52.28890 | 4.73679 | 51 ft | 131 kts | 58° |
| 2026-05-08 20:03 | 52.29347 | 4.74862 | -2 ft | 112 kts | 57° |
| 2026-05-08 20:03 | 52.29623 | 4.75576 | -2 ft | 57 kts | 57° |
| 2026-05-08 20:04 | 52.29814 | 4.76073 | -5 ft | 50 kts | 58° |
| 2026-05-08 20:04 | 52.29963 | 4.76449 | -4 ft | 26 kts | 50° |
| 2026-05-08 20:04 | 52.30098 | 4.76599 | -2 ft | 20 kts | 27° |
| 2026-05-08 20:04 | 52.30203 | 4.76689 | -2 ft | 14 kts | 28° |
| 2026-05-08 20:05 | 52.30289 | 4.76746 | -2 ft | 11 kts | 357° |
| 2026-05-08 20:05 | 52.30363 | 4.76732 | -2 ft | 11 kts | 23° |
| 2026-05-08 20:05 | 52.30418 | 4.76744 | -2 ft | 7 kts | 336° |
| 2026-05-08 20:05 | 52.30457 | 4.76715 | -2 ft | 1 kts | 334° |
| 2026-05-08 20:06 | 52.30458 | 4.76714 | -2 ft | 0 kts | 334° |